Aktualne dane pomiarowe

Uwaga, wersja testowa! Automatyczne pobieranie danych za pomocą narzędzi lub skryptów to umożliwiających jest zabronione.

Dane meteo z obszaru Polski uzyskane na podstawie depesz SYNOP pobieranych co godzinę z NWS. Najedź myszką na symbol przedstawiony w tabeli, aby uzyskać informacje co do jego znaczenia. Prosimy pamiętać, że to testowa wersja strony, która jeszcze nie jest ukończona. Stworzono również jest krótki FAQ dotyczący korzystania z tej podstrony Anomalie temperatury w chwili obecnej odniesione są do okresu referencyjnego 1951-2016. Okres ten będzie później zmieniony na 1981-2010. Kliknij ikonę aby pobrać plik CSV. Kliknij ikonę aby wygenerować mapę synoptyczną dla danego terminu.

Wybierz Datę:    

        

Zamość (12595)

Dane terminowe dla wybranej stacji. Kliknij datę, aby otrzymać dane z tego terminu dla wszystkich stacji.

TemperaturaZachmurzenieWiatrCiśnienieOpadyPogoda
 Data t td wb tx tn tg rh  Nt Nl Cl Cm Ch ws wd g1 g2 wx mslp ppp ch 24h 12h t ww ww w1 w2  
2019-09-22 23:00:00 6.7 5.6 5.9--- 9320.0--2wx--21017.2 990.0 0.0---------
2019-09-22 22:00:00 7.2 5.8 6.2--- 9120.0--1wx--11017.2 990.0 0.0---------
2019-09-22 21:00:00 7.9 5.9 6.6--- 8720.0--2wx--21017.1 990.0 0.3---------
2019-09-22 20:00:00 8.6 6.0 6.9--- 8420.0--1wx--11017.1 990.0 0.5---------
2019-09-22 19:00:00 9.7 5.7 7.3--- 7620.0--3wx--31017.0 990.0 0.5---------
2019-09-22 18:00:00 10.6 6.3 8.0 21.1 10.0- 7520.0wx-2wx--21016.6 989.7 -0.1- 0.012------
2019-09-22 17:00:00 13.8 6.9 9.8--- 6320.0wx-2wx--21016.1 989.5 -0.7---------
2019-09-22 16:00:00 18.3 7.1 12.0--- 4820.0wx-3wx--31015.6 989.5 -1.2---------
2019-09-22 15:00:00 20.5 7.1 13.0--- 4220.0wx-4wx--41015.7 989.8 -1.7---------
2019-09-22 14:00:00 20.7 7.0 13.0--- 4120.0wx-4wx--41016.1 990.2 -2.0---------
2019-09-22 13:00:00 20.5 6.8 12.9--- 4120.0wx-6wx--61016.7 990.7 -2.3---------
2019-09-22 12:00:00 20.2 6.9 12.8--- 4217.0wx-6wx--61017.5 991.5 -1.7- 0.06------
2019-09-22 11:00:00 19.3 6.7 12.3--- 4420.0wx-6wx--61018.3 992.2 -1.6---------
2019-09-22 10:00:00 18.3 6.5 11.7--- 4616.0wx-6wx--61019.2 993.0 -1.2---------
2019-09-22 09:00:00 16.8 6.9 11.2--- 5220.0wx-5wx--51019.6 993.2 -1.0---------
2019-09-22 08:00:00 15.2 6.7 10.3--- 5713.0wx-6wx--61020.3 993.8 -0.3---------
2019-09-22 07:00:00 12.6 7.3 9.4--- 7020.0wx-7wx---1021.0 994.2 0.2---------
2019-09-22 06:00:00 10.0 7.2 8.2 12.9 7.3 6 8319.0wx-2wx--21021.2 994.2 0.2 0.1 0.012wx-----
2019-09-22 05:00:00 8.0 5.8 6.6--- 8618.0--3wx--31021.3 994.1 -0.3---------
2019-09-22 04:00:00 7.7 5.7 6.4--- 8717.0--4wx--41021.3 994.0 -0.4---------
2019-09-22 03:00:00 8.4 6.0 6.8--- 8519.0--5wx--51021.2 994.0 -0.4---------
2019-09-22 02:00:00 8.6 6.0 6.9--- 8420.0--4wx--41021.6 994.4 -0.3---------
2019-09-22 01:00:00 8.1 5.7 6.6--- 8520.0--4wx--41021.6 994.4 -0.7---------
2019-09-22 00:00:00 8.7 6.3 7.1--- 8520.0--4wx--41021.6 994.4 -1.0- 0.06------
2019-09-21 23:00:00 8.9 6.9 7.6--- 8720.0--3wx--31021.9 994.7 -0.7---------
2019-09-21 22:00:00 9.6 7.7 8.3--- 8820.0--4wx--41022.2 995.1 -0.7---------
2019-09-21 21:00:00 9.7 8.0 8.5--- 8920.0--4wx--41022.5 995.4 -0.7---------
2019-09-21 20:00:00 9.6 7.0 7.9--- 8420.0--3wx--31022.5 995.4 -0.5---------
2019-09-21 19:00:00 12.4 8.5 9.9--- 7720.0--3wx--31022.7 995.8 -0.1---------
2019-09-21 18:00:00 12.8 8.3 10.0 15.6 7.7- 7420.0wxwxwx3wx--31022.9 996.1 0.2- 0.112------
2019-09-21 17:00:00 13.2 7.8 9.9--- 7020.0wxwxwx4wx--41022.7 995.9 -0.4---------
2019-09-21 16:00:00 13.7 8.3 10.4--- 7020.0wxwxwx4wx--41022.6 995.9 -0.7---------
2019-09-21 15:00:00 14.2 7.9 10.4--- 6620.0wxwxwx7wx--71022.6 995.9 -1.2---------
2019-09-21 14:00:00 14.8 8.3 10.9--- 6520.0wxwxwx6wx---1022.9 996.3 -1.0---------
2019-09-21 13:00:00 15.1 9.0 11.4--- 6720.0wxwxwx6wx--61023.2 996.6 -0.8---------
2019-09-21 12:00:00 14.3 8.3 10.7--- 6720.0wxwxwx7wx--71023.8 997.1 -0.1- 0.16wx-w1--
2019-09-21 11:00:00 14.6 8.1 10.7--- 6520.0wxwxwx7wx--71024.0 997.3 -0.1---------
2019-09-21 10:00:00 14.1 8.3 10.6--- 6820.0wxwxwxwx8wx--81024.1 997.4 0.2---------
2019-09-21 09:00:00 12.8 8.5 10.1--- 7520.0wxwxwxwx8wx--81024.1 997.2 -0.6---wx-w1--
2019-09-21 08:00:00 10.4 7.1 8.3--- 8020.0wxwxwx7wx--71024.5 997.4 -0.1---------
2019-09-21 07:00:00 9.1 7.2 7.8--- 8820.0wxwxwx6wx--61024.4 997.2 -0.4---wx-w1--
2019-09-21 06:00:00 7.7 6.0 6.6 8.0 2.0 0 896.0wxwxwx5wx--51025.2 997.8 0.0 0.2 0.212wx-----
2019-09-21 05:00:00 6.9 4.6 5.4--- 8520.0--2wx--21024.9 997.5 -0.3---------
2019-09-21 04:00:00 6.4 3.7 4.7--- 8320.0--4wx---1025.1 997.6 -0.4---------
2019-09-21 03:00:00 6.4 3.5 4.6--- 8220.0--2wx--21025.3 997.8 -0.5---------
2019-09-21 02:00:00 6.1 3.6 4.5--- 8420.0--3wx--31025.3 997.8 -0.9---------
2019-09-21 01:00:00 4.5 3.2 3.6--- 9120.0--1wx--11025.7 998.0 -0.6---------
2019-09-21 00:00:00 2.5 1.3 1.7--- 9220.0--2wx--21026.2 998.3 -0.6- 0.06------
1.2 ms

 

Print Friendly, PDF & Email